Time;durP1;ratioP1;P1;durP2;ratioP2;P2;SDS_P1;SDS_P2;PMS_P1;PMS_P2;Temp;Humidity;BMP_temperature;BMP_pressure;BME280_temperature;BME280_humidity;BME280_pressure;Samples;Min_cycle;Max_cycle;Signal;HPM_P1;HPM_P2
2023/06/09 00:00:30;;;;;;;6.83;4.50;;;21.60;99.90;;;;;;1915652;73;21082;-77
2023/06/09 00:03:23;;;;;;;5.12;4.62;;;21.50;99.90;;;;;;1900370;75;21182;-78
2023/06/09 00:06:16;;;;;;;6.30;5.00;;;21.50;99.90;;;;;;1899381;74;21236;-77
2023/06/09 00:14:31;;;;;;;4.78;4.37;;;21.40;99.90;;;;;;1938407;72;22322;-77
2023/06/09 00:20:03;;;;;;;5.20;4.17;;;21.40;99.90;;;;;;1917365;72;22225;-77
2023/06/09 00:22:55;;;;;;;5.42;4.90;;;21.40;99.90;;;;;;1922587;73;21233;-78
2023/06/09 00:25:46;;;;;;;5.53;5.00;;;21.40;99.90;;;;;;1930679;73;21139;-78
2023/06/09 00:28:37;;;;;;;5.72;4.97;;;21.20;99.90;;;;;;1927485;73;21155;-77
2023/06/09 00:31:29;;;;;;;6.00;4.80;;;21.20;99.90;;;;;;1943604;73;21109;-78
2023/06/09 00:34:20;;;;;;;5.92;5.22;;;21.10;99.90;;;;;;1888458;75;21119;-77
2023/06/09 00:37:11;;;;;;;6.47;4.97;;;21.10;99.90;;;;;;1915840;73;21094;-77
2023/06/09 00:42:42;;;;;;;5.75;4.85;;;21.00;99.90;;;;;;1934041;72;22182;-77
2023/06/09 00:45:33;;;;;;;5.90;4.92;;;21.00;99.90;;;;;;1899563;75;21095;-77
2023/06/09 00:48:26;;;;;;;6.67;5.20;;;21.00;99.90;;;;;;1887083;75;21146;-77
2023/06/09 00:53:58;;;;;;;6.05;4.20;;;21.00;99.90;;;;;;1971346;72;22182;-77
2023/06/09 00:56:50;;;;;;;5.33;4.92;;;21.00;99.90;;;;;;1950450;72;21164;-78
2023/06/09 00:59:41;;;;;;;6.37;5.58;;;21.00;99.90;;;;;;1954306;72;21142;-78
2023/06/09 01:05:21;;;;;;;5.40;4.90;;;20.90;99.90;;;;;;1937336;72;22334;-77
2023/06/09 01:10:55;;;;;;;4.97;4.40;;;20.90;99.90;;;;;;1931168;72;22154;-77
2023/06/09 01:13:50;;;;;;;5.25;4.75;;;20.90;99.90;;;;;;1893117;75;21117;-77
2023/06/09 01:16:47;;;;;;;6.47;4.83;;;20.90;99.90;;;;;;1906976;75;21160;-77
2023/06/09 01:19:41;;;;;;;4.90;4.40;;;20.80;99.90;;;;;;1893935;75;21059;-79
2023/06/09 01:22:38;;;;;;;4.78;4.37;;;20.80;99.90;;;;;;1887555;75;21125;-77
2023/06/09 01:25:34;;;;;;;4.95;4.50;;;20.70;99.90;;;;;;1900636;75;21215;-78
2023/06/09 01:28:26;;;;;;;4.85;4.35;;;20.70;99.90;;;;;;1904946;75;21078;-77
2023/06/09 01:31:19;;;;;;;6.58;5.20;;;20.60;99.90;;;;;;1902491;75;21534;-77
2023/06/09 01:34:10;;;;;;;5.12;4.70;;;20.60;99.90;;;;;;1903123;75;21098;-77
2023/06/09 01:37:03;;;;;;;7.72;4.80;;;20.60;99.90;;;;;;1898806;75;21827;-77
2023/06/09 01:39:55;;;;;;;7.00;5.10;;;20.60;99.90;;;;;;1902815;75;21093;-77
2023/06/09 01:45:25;;;;;;;5.30;4.78;;;20.60;99.90;;;;;;1950443;72;22142;-77
2023/06/09 01:50:59;;;;;;;5.17;4.67;;;20.60;99.90;;;;;;1952209;72;22618;-77
2023/06/09 01:56:34;;;;;;;5.40;4.90;;;20.50;99.90;;;;;;1922803;72;22257;-78
2023/06/09 01:59:28;;;;;;;5.22;4.72;;;20.50;99.90;;;;;;1892416;73;21112;-77
2023/06/09 02:05:05;;;;;;;7.05;4.42;;;20.50;99.90;;;;;;1932786;72;22263;-77
2023/06/09 02:10:36;;;;;;;5.40;4.83;;;20.50;99.90;;;;;;1947754;72;22277;-77
2023/06/09 02:13:27;;;;;;;5.67;5.00;;;20.40;99.90;;;;;;1893641;75;21133;-77
2023/06/09 02:16:19;;;;;;;5.25;4.78;;;20.40;99.90;;;;;;1895271;75;21108;-78
2023/06/09 02:21:50;;;;;;;5.62;5.05;;;20.40;99.90;;;;;;1951673;72;22269;-77
2023/06/09 02:24:42;;;;;;;5.75;4.80;;;20.30;99.90;;;;;;1922552;73;21082;-77
2023/06/09 02:27:33;;;;;;;5.25;4.72;;;20.30;99.90;;;;;;1922262;73;21601;-77
2023/06/09 02:30:25;;;;;;;5.10;4.60;;;20.30;99.90;;;;;;1926066;73;21078;-77
2023/06/09 02:35:55;;;;;;;5.45;5.00;;;20.30;99.90;;;;;;1961087;72;22182;-77
2023/06/09 02:41:26;;;;;;;5.20;4.70;;;20.30;99.90;;;;;;1952110;72;22317;-77
2023/06/09 02:44:17;;;;;;;5.92;5.33;;;20.30;99.90;;;;;;1892343;75;21097;-77
2023/06/09 02:47:10;;;;;;;5.30;4.80;;;20.30;99.90;;;;;;1893857;75;21193;-80
2023/06/09 02:52:40;;;;;;;7.03;5.05;;;20.20;99.90;;;;;;1945248;72;22188;-77
2023/06/09 02:58:14;;;;;;;6.45;5.08;;;20.20;99.90;;;;;;1927127;72;22168;-78
2023/06/09 03:01:07;;;;;;;5.75;5.10;;;20.20;99.90;;;;;;1939902;73;21205;-78
2023/06/09 03:03:59;;;;;;;5.78;4.65;;;20.20;99.90;;;;;;1935455;73;21112;-77
2023/06/09 03:06:53;;;;;;;5.97;5.35;;;20.20;99.90;;;;;;1936323;73;21455;-77
2023/06/09 03:09:45;;;;;;;6.95;5.03;;;20.20;99.90;;;;;;1931236;73;21469;-77
2023/06/09 03:12:36;;;;;;;6.42;5.45;;;20.10;99.90;;;;;;1936379;73;21233;-77
2023/06/09 03:15:28;;;;;;;6.10;5.30;;;20.00;99.90;;;;;;1935915;73;21139;-77
2023/06/09 03:18:20;;;;;;;6.30;4.78;;;20.00;99.90;;;;;;1941176;73;21159;-77
2023/06/09 03:21:13;;;;;;;5.55;4.97;;;19.90;99.90;;;;;;1942873;73;21091;-77
2023/06/09 03:24:07;;;;;;;5.20;4.60;;;19.90;99.90;;;;;;1944004;73;21074;-77
2023/06/09 03:26:58;;;;;;;5.72;5.15;;;19.90;99.90;;;;;;1930156;73;21116;-77
2023/06/09 03:29:51;;;;;;;5.65;5.12;;;19.90;99.90;;;;;;1934242;73;21089;-77
2023/06/09 03:35:23;;;;;;;7.53;5.08;;;19.90;99.90;;;;;;1941908;72;22230;-77
2023/06/09 03:40:58;;;;;;;5.58;5.08;;;19.90;99.90;;;;;;1928785;72;22120;-77
2023/06/09 03:43:50;;;;;;;5.37;4.92;;;19.90;99.90;;;;;;1907293;73;21153;-77
2023/06/09 03:46:42;;;;;;;6.42;4.80;;;19.90;99.90;;;;;;1884291;75;21618;-77
2023/06/09 03:49:33;;;;;;;4.90;4.40;;;19.90;99.90;;;;;;1903071;75;21679;-77
2023/06/09 03:52:25;;;;;;;6.30;4.62;;;20.00;99.90;;;;;;1889497;75;21663;-77
2023/06/09 03:58:00;;;;;;;5.42;4.92;;;19.80;99.90;;;;;;1912462;72;22151;-77
2023/06/09 04:00:52;;;;;;;5.72;4.42;;;19.70;99.90;;;;;;1899671;75;21548;-77
2023/06/09 04:03:44;;;;;;;6.00;4.72;;;19.70;99.90;;;;;;1906334;75;21102;-77
2023/06/09 04:06:37;;;;;;;5.47;4.87;;;19.70;99.90;;;;;;1895430;75;21125;-77
2023/06/09 04:09:36;;;;;;;9.00;4.90;;;19.70;99.90;;;;;;1899601;75;21233;-77
2023/06/09 04:12:28;;;;;;;5.12;4.62;;;19.50;99.90;;;;;;1905451;74;21063;-77
2023/06/09 04:15:20;;;;;;;5.72;5.17;;;19.50;99.90;;;;;;1884954;75;21164;-77
2023/06/09 04:18:12;;;;;;;5.62;4.85;;;19.60;99.90;;;;;;1916855;75;21104;-77
2023/06/09 04:21:04;;;;;;;6.25;5.47;;;19.60;99.90;;;;;;1897500;74;21117;-77
2023/06/09 04:23:56;;;;;;;6.60;5.37;;;19.50;99.90;;;;;;1887742;75;21194;-77
2023/06/09 04:26:48;;;;;;;7.80;5.65;;;19.70;99.90;;;;;;1863794;76;21539;-78
2023/06/09 04:29:40;;;;;;;5.33;4.83;;;19.80;99.90;;;;;;1907502;75;21050;-78
2023/06/09 04:32:32;;;;;;;5.72;4.95;;;19.90;99.90;;;;;;1913227;74;21262;-78
2023/06/09 04:35:24;;;;;;;6.35;5.00;;;20.00;99.90;;;;;;1891432;75;21593;-79
2023/06/09 04:40:57;;;;;;;6.25;4.87;;;20.00;99.90;;;;;;1932014;72;22216;-77
2023/06/09 04:43:49;;;;;;;7.15;4.90;;;20.10;99.90;;;;;;1931958;73;21176;-77
2023/06/09 04:46:41;;;;;;;6.37;4.67;;;20.20;99.90;;;;;;1918715;73;21152;-77
2023/06/09 04:49:35;;;;;;;6.50;5.30;;;20.30;99.90;;;;;;1924504;73;21087;-77
2023/06/09 04:52:26;;;;;;;6.00;4.70;;;20.30;99.90;;;;;;1937065;73;21095;-77
2023/06/09 04:57:57;;;;;;;7.05;5.00;;;20.40;99.90;;;;;;1943539;72;22267;-78
2023/06/09 05:00:49;;;;;;;8.73;5.92;;;20.40;99.90;;;;;;1923499;74;21052;-78
2023/06/09 05:06:24;;;;;;;7.35;5.35;;;20.50;99.90;;;;;;1941645;72;22138;-78
2023/06/09 05:09:16;;;;;;;6.30;4.87;;;20.50;99.90;;;;;;1892153;75;21098;-79
2023/06/09 05:12:09;;;;;;;6.58;5.17;;;20.60;99.90;;;;;;1883535;75;21305;-78
2023/06/09 05:15:03;;;;;;;6.42;4.85;;;20.60;99.90;;;;;;1863937;76;21179;-75
2023/06/09 05:20:37;;;;;;;10.08;5.10;;;20.60;99.90;;;;;;1916012;72;22238;-75
2023/06/09 05:23:29;;;;;;;5.67;4.92;;;20.60;99.90;;;;;;1931837;73;21095;-75
2023/06/09 05:26:20;;;;;;;6.35;4.70;;;20.70;99.90;;;;;;1939414;73;21559;-75
2023/06/09 05:31:52;;;;;;;5.17;4.67;;;20.70;99.90;;;;;;1933523;72;22563;-75
2023/06/09 05:34:44;;;;;;;5.30;4.80;;;20.70;99.90;;;;;;1912649;74;21112;-75
2023/06/09 05:37:36;;;;;;;5.70;4.87;;;20.70;99.90;;;;;;1904391;74;21139;-75
2023/06/09 05:40:27;;;;;;;5.15;4.70;;;20.70;99.90;;;;;;1895303;75;21110;-75
2023/06/09 05:43:19;;;;;;;6.00;5.03;;;20.70;99.90;;;;;;1901177;75;21111;-75
2023/06/09 05:46:10;;;;;;;8.38;4.83;;;20.80;99.90;;;;;;1884579;75;21084;-75
2023/06/09 05:49:02;;;;;;;5.22;4.55;;;20.90;99.90;;;;;;1901520;75;21093;-75
2023/06/09 05:51:53;;;;;;;5.50;4.83;;;20.90;99.90;;;;;;1910356;75;21223;-75
2023/06/09 05:54:47;;;;;;;5.30;4.65;;;20.90;99.90;;;;;;1904356;75;21106;-76
2023/06/09 05:57:40;;;;;;;6.08;4.92;;;21.00;99.90;;;;;;1893612;75;21188;-75
2023/06/09 06:00:30;;;;;;;5.30;4.67;;;21.00;99.90;;;;;;1886730;75;21125;-74
2023/06/09 06:05:59;;;;;;;5.72;5.12;;;21.00;99.90;;;;;;1933835;72;22384;-74
2023/06/09 06:08:50;;;;;;;7.08;5.42;;;21.10;99.90;;;;;;1899892;75;21353;-74
2023/06/09 06:11:41;;;;;;;5.47;4.97;;;21.20;99.90;;;;;;1881282;75;21341;-74
2023/06/09 06:14:33;;;;;;;5.83;5.30;;;21.20;99.90;;;;;;1899031;75;21269;-74
2023/06/09 06:17:24;;;;;;;5.22;4.72;;;21.20;99.90;;;;;;1892606;75;21096;-74
2023/06/09 06:20:15;;;;;;;5.37;4.87;;;21.30;99.90;;;;;;1903935;75;21040;-74
2023/06/09 06:23:08;;;;;;;6.28;5.37;;;21.40;99.90;;;;;;1902975;75;21109;-74
2023/06/09 06:26:00;;;;;;;5.45;4.95;;;21.40;99.90;;;;;;1897527;75;21066;-75
2023/06/09 06:28:51;;;;;;;5.40;4.90;;;21.40;99.90;;;;;;1904659;75;21163;-74
2023/06/09 06:31:42;;;;;;;5.37;4.87;;;21.40;99.90;;;;;;1897335;75;21084;-75
2023/06/09 06:34:34;;;;;;;5.22;4.83;;;21.50;99.90;;;;;;1912520;75;21058;-74
2023/06/09 06:37:26;;;;;;;9.48;4.67;;;21.50;99.90;;;;;;1903402;75;21106;-74
2023/06/09 06:40:17;;;;;;;5.97;5.37;;;21.50;99.90;;;;;;1898700;75;21125;-74
2023/06/09 06:51:09;;;;;;;6.37;5.20;;;21.50;99.90;;;;;;1930418;72;22161;-75
2023/06/09 06:54:01;;;;;;;6.75;5.55;;;21.50;99.90;;;;;;1916666;74;21213;-75
2023/06/09 06:56:56;;;;;;;7.55;5.30;;;21.50;99.90;;;;;;1896937;74;21240;-74
2023/06/09 06:59:47;;;;;;;5.97;5.37;;;21.50;99.90;;;;;;1871709;75;21145;-74
2023/06/09 07:02:39;;;;;;;6.47;4.97;;;21.50;99.90;;;;;;1896651;74;21212;-75
2023/06/09 07:05:30;;;;;;;5.25;4.70;;;21.40;99.90;;;;;;1892545;74;21084;-75
2023/06/09 07:11:15;;;;;;;5.78;5.28;;;21.40;99.90;;;;;;1934113;72;22126;-77
2023/06/09 07:14:17;;;;;;;7.65;5.42;;;21.50;99.90;;;;;;1891698;74;22181;-77
2023/06/09 07:17:12;;;;;;;6.53;5.40;;;21.50;99.90;;;;;;1889397;75;21384;-78
2023/06/09 07:20:22;;;;;;;6.03;5.15;;;21.50;99.90;;;;;;1893764;75;21050;-78
2023/06/09 07:25:55;;;;;;;6.47;5.30;;;21.40;99.90;;;;;;1933755;72;22099;-78
2023/06/09 07:28:47;;;;;;;6.62;5.30;;;21.40;99.90;;;;;;1897495;73;21102;-78
2023/06/09 07:31:38;;;;;;;6.55;5.50;;;21.30;99.90;;;;;;1892831;73;21654;-78
2023/06/09 07:37:14;;;;;;;8.20;6.67;;;21.30;99.90;;;;;;1909717;72;28218;-78
2023/06/09 07:40:10;;;;;;;6.85;5.30;;;21.50;99.90;;;;;;1893166;75;21141;-78
2023/06/09 07:45:46;;;;;;;6.95;5.25;;;21.50;99.90;;;;;;1938208;72;22284;-78
2023/06/09 07:48:42;;;;;;;5.80;5.12;;;21.50;99.90;;;;;;1895298;75;21118;-78
2023/06/09 07:51:36;;;;;;;6.10;4.80;;;21.50;99.90;;;;;;1905737;75;21712;-78
2023/06/09 07:54:29;;;;;;;5.67;4.87;;;21.60;99.90;;;;;;1898656;75;21156;-78
2023/06/09 07:57:21;;;;;;;6.58;5.00;;;21.60;99.90;;;;;;1904062;75;21167;-77
2023/06/09 08:00:15;;;;;;;6.78;4.75;;;21.70;99.90;;;;;;1887318;75;21222;-77
2023/06/09 08:03:07;;;;;;;6.03;4.90;;;21.80;99.90;;;;;;1905764;75;21379;-78
2023/06/09 08:05:59;;;;;;;7.90;4.90;;;21.90;99.90;;;;;;1906714;75;21107;-77
2023/06/09 08:11:28;;;;;;;6.15;5.00;;;22.00;99.90;;;;;;1929329;72;22209;-77
2023/06/09 08:17:10;;;;;;;7.92;5.25;;;22.10;99.90;;;;;;1887274;75;21090;-79
2023/06/09 08:22:40;;;;;;;7.03;5.72;;;22.10;99.90;;;;;;1936176;72;22540;-77
2023/06/09 08:25:32;;;;;;;9.55;5.33;;;22.30;99.90;;;;;;1899614;75;21111;-73
2023/06/09 08:28:23;;;;;;;8.10;6.20;;;22.40;99.90;;;;;;1913116;73;21987;-74
2023/06/09 08:31:15;;;;;;;11.45;6.47;;;22.30;99.90;;;;;;1905610;75;21584;-84
2023/06/09 08:36:50;;;;;;;11.18;5.10;;;22.50;99.90;;;;;;1941419;72;22166;-81
2023/06/09 08:39:43;;;;;;;7.22;4.87;;;22.60;99.90;;;;;;1877058;74;21105;-81
2023/06/09 08:42:35;;;;;;;8.98;5.10;;;22.80;99.90;;;;;;1871793;76;21051;-81
2023/06/09 08:45:30;;;;;;;10.28;5.15;;;22.80;99.90;;;;;;1890621;75;22449;-80
2023/06/09 08:51:04;;;;;;;8.13;4.67;;;23.00;99.90;;;;;;1944322;72;22130;-79
2023/06/09 08:53:56;;;;;;;8.73;5.40;;;23.10;99.90;;;;;;1898683;74;21258;-79
2023/06/09 08:56:51;;;;;;;9.40;5.85;;;23.10;99.90;;;;;;1887797;75;21103;-79
2023/06/09 08:59:44;;;;;;;8.60;4.90;;;23.10;99.90;;;;;;1903018;75;21144;-79
2023/06/09 09:02:36;;;;;;;10.43;5.05;;;23.10;99.90;;;;;;1897729;75;21129;-80
2023/06/09 09:05:31;;;;;;;11.45;4.60;;;22.90;99.90;;;;;;1920283;73;21166;-79
2023/06/09 09:11:08;;;;;;;9.15;4.97;;;22.80;99.90;;;;;;1951943;72;22725;-79
2023/06/09 09:14:12;;;;;;;7.12;4.28;;;22.60;99.90;;;;;;1902493;75;21114;-82
2023/06/09 09:19:51;;;;;;;8.95;4.25;;;22.40;99.90;;;;;;1941718;72;22276;-79
2023/06/09 09:25:30;;;;;;;6.60;4.20;;;22.30;99.90;;;;;;1958254;72;22336;-79
2023/06/09 09:28:21;;;;;;;6.00;4.20;;;22.20;99.90;;;;;;1932292;73;21167;-80
2023/06/09 09:31:13;;;;;;;6.58;4.55;;;22.20;99.90;;;;;;1924664;73;21154;-80
2023/06/09 09:34:04;;;;;;;6.22;4.40;;;22.20;99.90;;;;;;1930821;73;21215;-80
2023/06/09 09:36:57;;;;;;;5.67;4.97;;;22.20;99.90;;;;;;1919620;73;21285;-80
2023/06/09 09:39:53;;;;;;;8.40;5.03;;;22.20;99.90;;;;;;1944764;73;21123;-80
2023/06/09 09:42:47;;;;;;;5.78;4.90;;;22.10;99.90;;;;;;1916632;75;21204;-80
2023/06/09 09:45:38;;;;;;;9.03;5.30;;;22.00;99.90;;;;;;1929101;73;21168;-80
2023/06/09 09:48:30;;;;;;;9.25;5.08;;;22.00;99.90;;;;;;1925060;73;21078;-80
2023/06/09 09:51:22;;;;;;;7.75;5.47;;;22.10;99.90;;;;;;1917986;73;21122;-80
2023/06/09 09:56:52;;;;;;;8.50;5.60;;;22.10;99.90;;;;;;1925448;72;22216;-79
2023/06/09 09:59:44;;;;;;;9.80;5.28;;;22.20;99.90;;;;;;1902479;75;21114;-80
2023/06/09 10:02:37;;;;;;;9.60;5.85;;;22.30;99.90;;;;;;1890628;75;21097;-82
2023/06/09 10:05:31;;;;;;;8.18;5.78;;;22.20;99.90;;;;;;1885929;75;21121;-80
2023/06/09 10:11:09;;;;;;;7.65;6.85;;;22.20;99.90;;;;;;1933069;72;28157;-79
2023/06/09 10:14:01;;;;;;;7.05;5.83;;;22.30;99.90;;;;;;1898793;75;21171;-79
2023/06/09 10:16:53;;;;;;;6.53;5.58;;;22.30;99.90;;;;;;1903837;75;21086;-80
2023/06/09 10:19:47;;;;;;;7.03;5.53;;;22.40;99.90;;;;;;1897279;75;21102;-80
2023/06/09 10:22:42;;;;;;;6.70;5.90;;;22.40;99.90;;;;;;1898047;75;21175;-79
2023/06/09 10:25:33;;;;;;;6.05;5.47;;;22.50;99.90;;;;;;1894099;75;21207;-80
2023/06/09 10:28:25;;;;;;;7.10;5.65;;;22.60;99.90;;;;;;1882779;75;21116;-80
2023/06/09 10:36:42;;;;;;;6.20;5.67;;;22.70;99.90;;;;;;1933393;72;22241;-82
2023/06/09 10:42:28;;;;;;;7.78;7.00;;;22.50;99.90;;;;;;1909313;72;22196;-83
2023/06/09 10:48:01;;;;;;;7.50;6.45;;;22.60;99.90;;;;;;1930896;72;22243;-82
2023/06/09 10:50:52;;;;;;;10.35;6.92;;;22.60;99.90;;;;;;1872285;75;21828;-81
2023/06/09 10:54:09;;;;;;;8.83;6.50;;;22.60;99.90;;;;;;1822708;77;21116;-82
2023/06/09 10:57:05;;;;;;;7.35;6.75;;;22.70;99.90;;;;;;1904709;75;21149;-82
2023/06/09 10:59:57;;;;;;;6.10;5.50;;;22.80;99.90;;;;;;1893331;75;21144;-82
2023/06/09 11:05:32;;;;;;;7.83;5.87;;;22.70;99.90;;;;;;1924040;72;22557;-82
2023/06/09 11:08:23;;;;;;;6.80;6.20;;;22.70;99.90;;;;;;1930909;73;21095;-82
2023/06/09 11:11:17;;;;;;;6.08;5.55;;;22.60;99.90;;;;;;1926238;73;21118;-81
2023/06/09 11:14:08;;;;;;;6.60;6.00;;;22.60;99.90;;;;;;1917498;73;21593;-82
2023/06/09 11:17:17;;;;;;;8.18;5.85;;;22.80;99.90;;;;;;1940703;73;21563;-74
2023/06/09 11:20:17;;;;;;;7.20;6.60;;;22.90;99.90;;;;;;1925787;73;21186;-70
2023/06/09 11:25:48;;;;;;;7.60;6.55;;;23.00;99.90;;;;;;1916940;72;22254;-72
2023/06/09 11:28:42;;;;;;;6.60;6.00;;;23.00;99.90;;;;;;1887756;75;21146;-68
2023/06/09 11:31:52;;;;;;;10.48;6.15;;;23.00;99.90;;;;;;1891896;73;21211;-74
2023/06/09 11:34:56;;;;;;;7.42;6.28;;;23.00;99.90;;;;;;1897197;75;21196;-76
2023/06/09 11:40:37;;;;;;;9.15;5.70;;;23.00;99.90;;;;;;1942393;72;22212;-74
2023/06/09 11:43:29;;;;;;;7.62;6.58;;;23.00;99.90;;;;;;1919270;73;21094;-70
2023/06/09 11:46:20;;;;;;;6.58;5.83;;;23.00;99.90;;;;;;1944634;73;21086;-74
2023/06/09 11:52:06;;;;;;;7.25;6.12;;;23.20;99.90;;;;;;1951905;72;22102;-82
2023/06/09 11:54:55;;;;;;;7.72;6.85;;;23.20;99.90;;;;;;1886706;75;21056;-81
2023/06/09 11:57:47;;;;;;;7.97;7.10;;;23.10;99.90;;;;;;1913049;75;21150;-81
2023/06/09 12:03:25;;;;;;;8.00;6.30;;;23.00;99.90;;;;;;1939366;72;22130;-82
2023/06/09 12:06:19;;;;;;;7.05;6.35;;;23.10;99.90;;;;;;1898464;75;21428;-82
2023/06/09 12:12:02;;;;;;;8.80;7.00;;;22.90;99.90;;;;;;1942082;72;22186;-81
2023/06/09 12:14:54;;;;;;;8.60;7.12;;;23.00;99.90;;;;;;1940808;73;21611;-81
2023/06/09 12:33:29;;;;;;;6.65;6.05;;;22.60;99.90;;;;;;1948332;72;22251;-82
2023/06/09 12:36:27;;;;;;;7.20;6.60;;;22.70;99.90;;;;;;1923595;73;21116;-82
2023/06/09 12:42:00;;;;;;;7.47;6.78;;;22.80;99.90;;;;;;1921845;72;22283;-81
2023/06/09 12:44:53;;;;;;;8.70;6.53;;;22.90;99.90;;;;;;1911073;74;21166;-80
2023/06/09 12:47:50;;;;;;;6.78;6.08;;;23.00;99.90;;;;;;1905857;74;21554;-81
2023/06/09 12:50:43;;;;;;;8.65;6.10;;;23.00;99.90;;;;;;1908202;74;21179;-82
2023/06/09 12:53:35;;;;;;;7.53;6.65;;;23.00;99.90;;;;;;1888915;75;21185;-80
2023/06/09 12:56:27;;;;;;;7.10;6.45;;;23.10;99.90;;;;;;1915356;74;21100;-80
2023/06/09 12:59:18;;;;;;;7.45;6.75;;;23.10;99.90;;;;;;1906919;74;21208;-80
2023/06/09 13:04:50;;;;;;;9.33;6.17;;;23.20;99.90;;;;;;1938118;72;22863;-81
2023/06/09 13:07:43;;;;;;;6.62;6.03;;;23.20;99.90;;;;;;1896124;75;21172;-80
2023/06/09 13:15:54;;;;;;;7.40;6.70;;;23.20;99.90;;;;;;1929942;72;22256;-80
2023/06/09 13:18:46;;;;;;;8.13;6.80;;;23.20;99.90;;;;;;1890801;75;21207;-80
2023/06/09 13:24:15;;;;;;;10.35;7.28;;;23.20;99.90;;;;;;1937834;72;22270;-79
2023/06/09 13:29:53;;;;;;;8.30;7.50;;;23.10;99.90;;;;;;1928094;72;22279;-79
2023/06/09 13:32:47;;;;;;;8.45;7.65;;;23.30;99.90;;;;;;1903273;75;21169;-79
2023/06/09 13:38:18;;;;;;;9.45;7.75;;;23.50;99.90;;;;;;1922691;72;22222;-80
2023/06/09 13:41:09;;;;;;;7.97;7.28;;;23.60;99.90;;;;;;1899920;74;21161;-80
2023/06/09 13:46:42;;;;;;;7.95;7.12;;;23.60;99.90;;;;;;1933811;72;22197;-81
2023/06/09 13:52:12;;;;;;;8.40;7.33;;;23.50;99.90;;;;;;1939128;72;22217;-80
2023/06/09 13:57:44;;;;;;;7.78;7.03;;;23.40;99.90;;;;;;1931700;72;22202;-80
2023/06/09 14:00:36;;;;;;;8.28;7.47;;;23.40;99.90;;;;;;1900544;74;21104;-80
2023/06/09 14:11:31;;;;;;;8.33;6.40;;;23.40;99.90;;;;;;1945316;72;22138;-80
2023/06/09 14:14:23;;;;;;;8.08;7.28;;;23.60;99.90;;;;;;1923361;74;21102;-80
2023/06/09 14:17:14;;;;;;;8.13;7.12;;;23.60;99.90;;;;;;1906324;74;21166;-80
2023/06/09 14:20:09;;;;;;;7.25;6.55;;;23.90;99.90;;;;;;1918612;74;21554;-80
2023/06/09 14:25:52;;;;;;;7.35;6.65;;;23.90;99.90;;;;;;1941378;72;22221;-81
2023/06/09 14:31:25;;;;;;;7.40;6.80;;;23.90;99.90;;;;;;1949907;72;22195;-80
2023/06/09 14:34:29;;;;;;;7.07;6.43;;;23.80;99.90;;;;;;1898432;75;21152;-81
2023/06/09 14:37:21;;;;;;;7.15;6.45;;;23.90;99.90;;;;;;1898117;75;21745;-81
2023/06/09 14:40:14;;;;;;;7.25;6.42;;;24.10;99.90;;;;;;1900394;75;21087;-80
2023/06/09 14:43:09;;;;;;;9.65;8.75;;;24.10;99.90;;;;;;1905503;75;21152;-81
2023/06/09 14:48:45;;;;;;;11.30;9.43;;;24.00;99.90;;;;;;1944693;72;22294;-82
2023/06/09 14:51:36;;;;;;;8.08;7.28;;;24.20;99.90;;;;;;1889968;74;21142;-82
2023/06/09 14:57:07;;;;;;;10.58;9.10;;;24.20;99.90;;;;;;1942635;72;22321;-80
2023/06/09 14:59:58;;;;;;;10.53;9.53;;;24.20;99.90;;;;;;1921104;73;21672;-80
2023/06/09 15:11:04;;;;;;;11.88;8.58;;;24.20;99.90;;;;;;1948426;72;22103;-81
2023/06/09 15:16:34;;;;;;;11.30;9.10;;;24.00;99.90;;;;;;1952058;72;22154;-81
2023/06/09 15:19:26;;;;;;;9.05;8.25;;;24.00;99.90;;;;;;1918421;73;21705;-80
2023/06/09 15:22:17;;;;;;;11.25;8.38;;;24.20;99.90;;;;;;1916477;75;21165;-80
2023/06/09 15:27:56;;;;;;;11.05;8.80;;;24.90;99.90;;;;;;1946461;72;22201;-81
2023/06/09 15:30:48;;;;;;;12.40;8.10;;;25.00;99.90;;;;;;1907666;75;22178;-80
2023/06/09 15:33:40;;;;;;;7.10;6.40;;;24.90;99.90;;;;;;1899570;75;21164;-80
2023/06/09 15:41:53;;;;;;;7.47;6.67;;;24.60;99.90;;;;;;1948486;72;22154;-83
2023/06/09 15:44:44;;;;;;;7.55;6.30;;;24.70;99.90;;;;;;1921027;74;21577;-81
2023/06/09 15:50:19;;;;;;;7.80;7.00;;;24.50;99.90;;;;;;1927361;72;22158;-80
2023/06/09 15:55:53;;;;;;;8.55;6.60;;;24.30;99.90;;;;;;1952805;72;22157;-80
2023/06/09 16:01:23;;;;;;;10.28;7.42;;;24.10;99.90;;;;;;1926974;72;22271;-81
2023/06/09 16:04:14;;;;;;;8.45;7.35;;;24.20;99.90;;;;;;1888478;75;21371;-79
2023/06/09 16:07:07;;;;;;;10.88;7.92;;;24.20;99.90;;;;;;1906862;73;21101;-80
2023/06/09 16:09:58;;;;;;;8.80;7.90;;;24.10;99.90;;;;;;1912202;73;21107;-80
2023/06/09 16:12:50;;;;;;;8.80;7.92;;;24.00;99.90;;;;;;1903261;75;21233;-80
2023/06/09 16:15:42;;;;;;;9.70;8.78;;;24.10;99.90;;;;;;1904894;75;21047;-80
2023/06/09 16:18:34;;;;;;;13.18;8.98;;;23.90;99.90;;;;;;1900448;75;21094;-80
2023/06/09 16:26:51;;;;;;;11.27;10.17;;;24.50;99.90;;;;;;1939986;72;28033;-80
2023/06/09 16:32:27;;;;;;;10.80;9.80;;;24.50;99.90;;;;;;1914266;72;28220;-80
2023/06/09 16:35:19;;;;;;;9.80;8.08;;;24.50;99.90;;;;;;1902208;75;21106;-80
2023/06/09 16:40:50;;;;;;;9.63;8.63;;;24.60;99.90;;;;;;1915746;72;22154;-80
2023/06/09 16:46:32;;;;;;;8.70;7.80;;;25.50;99.90;;;;;;1966121;72;22169;-80
2023/06/09 16:52:02;;;;;;;9.10;8.00;;;25.70;99.90;;;;;;1939051;72;22592;-80
2023/06/09 16:54:54;;;;;;;8.53;7.62;;;25.40;99.90;;;;;;1909322;74;21085;-80
2023/06/09 16:57:46;;;;;;;8.65;7.42;;;25.10;99.90;;;;;;1888535;75;21168;-80
2023/06/09 17:00:37;;;;;;;8.23;7.42;;;24.90;99.90;;;;;;1895584;73;21146;-80
2023/06/09 17:06:08;;;;;;;8.88;7.95;;;24.60;99.90;;;;;;1946320;72;22137;-80
2023/06/09 17:08:59;;;;;;;9.15;8.20;;;24.40;99.90;;;;;;1913201;73;21177;-80
2023/06/09 17:11:53;;;;;;;9.05;8.25;;;24.30;99.90;;;;;;1904446;74;21107;-80
2023/06/09 17:14:44;;;;;;;11.73;7.50;;;24.20;99.90;;;;;;1912291;74;21127;-80
2023/06/09 17:17:36;;;;;;;9.10;7.47;;;24.20;99.90;;;;;;1914120;74;21094;-80
2023/06/09 17:25:48;;;;;;;9.95;7.80;;;24.00;99.90;;;;;;1945115;72;22103;-80
2023/06/09 17:28:40;;;;;;;9.08;7.97;;;23.90;99.90;;;;;;1922723;73;21214;-80
2023/06/09 17:31:33;;;;;;;9.48;8.25;;;23.90;99.90;;;;;;1929449;73;21333;-80
2023/06/09 17:37:06;;;;;;;8.38;7.58;;;23.90;99.90;;;;;;1946712;72;22169;-80
2023/06/09 17:39:58;;;;;;;10.65;9.58;;;23.80;99.90;;;;;;1903255;74;21106;-79
2023/06/09 17:42:50;;;;;;;12.25;10.95;;;23.80;99.90;;;;;;1894104;75;21110;-80
2023/06/09 17:45:42;;;;;;;10.28;9.38;;;23.70;99.90;;;;;;1895707;75;21121;-80
2023/06/09 17:51:12;;;;;;;14.50;9.73;;;23.40;99.90;;;;;;1931412;72;22357;-79
2023/06/09 17:56:45;;;;;;;10.13;9.13;;;23.10;99.90;;;;;;1929996;72;22231;-80
2023/06/09 18:02:22;;;;;;;10.63;9.63;;;23.00;99.90;;;;;;1951580;72;22204;-79
2023/06/09 18:07:53;;;;;;;11.97;10.88;;;23.00;99.90;;;;;;1937443;72;22174;-80
2023/06/09 18:10:45;;;;;;;12.40;10.95;;;23.00;99.90;;;;;;1907983;75;21140;-80
2023/06/09 18:16:18;;;;;;;10.72;9.43;;;22.80;99.90;;;;;;1940684;72;22663;-80
2023/06/09 18:19:10;;;;;;;11.43;9.95;;;22.70;99.90;;;;;;1897297;75;21102;-80
2023/06/09 18:22:01;;;;;;;11.68;10.30;;;22.60;99.90;;;;;;1852713;76;21098;-80
2023/06/09 18:24:53;;;;;;;9.83;8.93;;;22.60;99.90;;;;;;1875484;75;21070;-81
2023/06/09 18:27:45;;;;;;;11.08;9.78;;;22.50;99.90;;;;;;1887850;74;21162;-81
2023/06/09 18:30:36;;;;;;;10.43;9.40;;;22.60;99.90;;;;;;1905247;75;21116;-80
2023/06/09 18:36:08;;;;;;;7.40;5.65;;;22.50;99.90;;;;;;1926245;72;22287;-80
2023/06/09 18:41:43;;;;;;;6.97;6.28;;;22.50;99.90;;;;;;1932366;72;22202;-79
2023/06/09 18:47:16;;;;;;;8.90;7.00;;;22.30;99.90;;;;;;1948883;72;22233;-79
2023/06/09 18:50:10;;;;;;;8.60;7.67;;;22.20;99.90;;;;;;1891470;75;21147;-79
2023/06/09 19:01:03;;;;;;;9.65;8.63;;;22.00;99.90;;;;;;1941430;72;22095;-80
2023/06/09 19:06:34;;;;;;;11.85;8.53;;;22.00;99.90;;;;;;1943486;72;22333;-80
2023/06/09 19:09:26;;;;;;;8.33;7.37;;;21.90;99.90;;;;;;1933186;73;21184;-80
2023/06/09 19:12:17;;;;;;;8.88;7.22;;;21.90;99.90;;;;;;1903395;73;21090;-80
2023/06/09 19:17:50;;;;;;;6.10;5.45;;;21.90;99.90;;;;;;1930999;72;22235;-79
2023/06/09 19:20:46;;;;;;;5.67;5.25;;;22.00;99.90;;;;;;1910968;75;21137;-82
2023/06/09 19:23:35;;;;;;;6.55;5.83;;;22.00;99.90;;;;;;1871099;74;21530;-82
2023/06/09 19:29:09;;;;;;;6.97;5.80;;;22.00;99.90;;;;;;1919325;72;22203;-80
2023/06/09 19:32:00;;;;;;;6.08;5.47;;;22.00;99.90;;;;;;1862398;76;21179;-80
2023/06/09 19:37:31;;;;;;;6.15;5.37;;;21.90;99.90;;;;;;1916419;74;22306;-80
2023/06/09 19:40:23;;;;;;;6.80;5.33;;;21.90;99.90;;;;;;1871691;76;21165;-79
2023/06/09 19:45:54;;;;;;;6.53;5.47;;;21.80;99.90;;;;;;1917287;72;22307;-79
2023/06/09 19:48:46;;;;;;;5.33;4.83;;;21.80;99.90;;;;;;1916893;73;21716;-79
2023/06/09 19:54:18;;;;;;;7.53;5.40;;;21.70;99.90;;;;;;1934554;72;22145;-80
2023/06/09 19:57:10;;;;;;;5.62;5.03;;;21.70;99.90;;;;;;1899181;75;21180;-80
2023/06/09 20:00:05;;;;;;;5.58;5.03;;;21.80;99.90;;;;;;1897637;75;21102;-80